sensor_id;sensor_type;location;lat;lon;timestamp;P1;durP1;ratioP1;P2;durP2;ratioP2
27706;SDS011;36332;51.384;0.040;2022-08-01T00:01:47;9.18;;;3.70;;
27706;SDS011;36332;51.384;0.040;2022-08-01T00:04:16;9.13;;;6.80;;
27706;SDS011;36332;51.384;0.040;2022-08-01T00:06:44;6.53;;;4.45;;
27706;SDS011;36332;51.384;0.040;2022-08-01T00:09:14;5.50;;;3.47;;
27706;SDS011;36332;51.384;0.040;2022-08-01T00:11:50;6.45;;;3.70;;
27706;SDS011;36332;51.384;0.040;2022-08-01T00:14:34;10.30;;;4.00;;
27706;SDS011;36332;51.384;0.040;2022-08-01T00:17:03;8.18;;;3.45;;
27706;SDS011;36332;51.384;0.040;2022-08-01T00:19:33;7.72;;;3.20;;
27706;SDS011;36332;51.384;0.040;2022-08-01T00:22:02;4.88;;;3.38;;
27706;SDS011;36332;51.384;0.040;2022-08-01T00:24:30;6.05;;;3.10;;
27706;SDS011;36332;51.384;0.040;2022-08-01T00:26:59;6.20;;;2.95;;
27706;SDS011;36332;51.384;0.040;2022-08-01T00:29:29;5.75;;;3.58;;
27706;SDS011;36332;51.384;0.040;2022-08-01T00:32:18;3.45;;;3.15;;
27706;SDS011;36332;51.384;0.040;2022-08-01T00:34:47;5.53;;;3.90;;
27706;SDS011;36332;51.384;0.040;2022-08-01T00:37:16;4.60;;;3.22;;
27706;SDS011;36332;51.384;0.040;2022-08-01T00:39:45;6.18;;;3.22;;
27706;SDS011;36332;51.384;0.040;2022-08-01T00:42:13;4.53;;;3.42;;
27706;SDS011;36332;51.384;0.040;2022-08-01T00:44:42;5.55;;;3.33;;
27706;SDS011;36332;51.384;0.040;2022-08-01T00:47:12;4.80;;;3.60;;
27706;SDS011;36332;51.384;0.040;2022-08-01T00:49:41;5.13;;;3.15;;
27706;SDS011;36332;51.384;0.040;2022-08-01T00:52:09;11.50;;;3.75;;
27706;SDS011;36332;51.384;0.040;2022-08-01T00:54:38;3.20;;;2.90;;
27706;SDS011;36332;51.384;0.040;2022-08-01T00:57:08;5.60;;;2.97;;
27706;SDS011;36332;51.384;0.040;2022-08-01T00:59:37;4.20;;;3.10;;
27706;SDS011;36332;51.384;0.040;2022-08-01T01:02:07;5.05;;;3.15;;
27706;SDS011;36332;51.384;0.040;2022-08-01T01:04:42;5.40;;;4.00;;
27706;SDS011;36332;51.384;0.040;2022-08-01T01:07:19;6.10;;;4.18;;
27706;SDS011;36332;51.384;0.040;2022-08-01T01:10:12;5.38;;;4.10;;
27706;SDS011;36332;51.384;0.040;2022-08-01T01:15:46;8.73;;;4.18;;
27706;SDS011;36332;51.384;0.040;2022-08-01T01:23:57;9.25;;;3.92;;
27706;SDS011;36332;51.384;0.040;2022-08-01T01:29:21;8.00;;;4.25;;
27706;SDS011;36332;51.384;0.040;2022-08-01T01:31:59;5.00;;;3.72;;
27706;SDS011;36332;51.384;0.040;2022-08-01T01:34:34;6.38;;;3.50;;
27706;SDS011;36332;51.384;0.040;2022-08-01T01:37:06;8.48;;;3.92;;
27706;SDS011;36332;51.384;0.040;2022-08-01T01:39:38;3.65;;;2.88;;
27706;SDS011;36332;51.384;0.040;2022-08-01T01:42:11;7.70;;;3.30;;
27706;SDS011;36332;51.384;0.040;2022-08-01T01:44:41;12.60;;;3.47;;
27706;SDS011;36332;51.384;0.040;2022-08-01T01:47:15;5.18;;;2.75;;
27706;SDS011;36332;51.384;0.040;2022-08-01T01:49:47;6.15;;;2.63;;
27706;SDS011;36332;51.384;0.040;2022-08-01T01:52:18;4.70;;;2.60;;
27706;SDS011;36332;51.384;0.040;2022-08-01T01:54:47;4.68;;;2.60;;
27706;SDS011;36332;51.384;0.040;2022-08-01T01:57:18;4.32;;;2.65;;
27706;SDS011;36332;51.384;0.040;2022-08-01T01:59:47;4.32;;;2.88;;
27706;SDS011;36332;51.384;0.040;2022-08-01T02:02:16;3.22;;;2.60;;
27706;SDS011;36332;51.384;0.040;2022-08-01T02:04:45;3.45;;;2.55;;
27706;SDS011;36332;51.384;0.040;2022-08-01T02:07:19;6.53;;;2.85;;
27706;SDS011;36332;51.384;0.040;2022-08-01T02:09:50;3.92;;;3.53;;
27706;SDS011;36332;51.384;0.040;2022-08-01T02:12:22;5.35;;;3.28;;
27706;SDS011;36332;51.384;0.040;2022-08-01T02:14:55;6.35;;;3.55;;
27706;SDS011;36332;51.384;0.040;2022-08-01T02:17:23;5.22;;;2.90;;
27706;SDS011;36332;51.384;0.040;2022-08-01T02:19:55;11.77;;;3.80;;
27706;SDS011;36332;51.384;0.040;2022-08-01T02:22:32;4.25;;;3.22;;
27706;SDS011;36332;51.384;0.040;2022-08-01T02:25:10;13.55;;;3.65;;
27706;SDS011;36332;51.384;0.040;2022-08-01T02:30:38;4.63;;;3.47;;
27706;SDS011;36332;51.384;0.040;2022-08-01T02:35:46;4.13;;;3.17;;
27706;SDS011;36332;51.384;0.040;2022-08-01T02:41:19;10.95;;;3.10;;
27706;SDS011;36332;51.384;0.040;2022-08-01T02:43:56;4.22;;;2.75;;
27706;SDS011;36332;51.384;0.040;2022-08-01T02:46:49;5.85;;;3.08;;
27706;SDS011;36332;51.384;0.040;2022-08-01T02:49:37;6.28;;;3.58;;
27706;SDS011;36332;51.384;0.040;2022-08-01T02:52:14;6.82;;;3.53;;
27706;SDS011;36332;51.384;0.040;2022-08-01T02:54:47;4.75;;;3.53;;
27706;SDS011;36332;51.384;0.040;2022-08-01T02:57:19;6.13;;;2.92;;
27706;SDS011;36332;51.384;0.040;2022-08-01T03:00:03;30.77;;;3.88;;
27706;SDS011;36332;51.384;0.040;2022-08-01T03:02:35;5.60;;;3.10;;
27706;SDS011;36332;51.384;0.040;2022-08-01T03:05:04;4.03;;;3.13;;
27706;SDS011;36332;51.384;0.040;2022-08-01T03:07:35;4.95;;;3.25;;
27706;SDS011;36332;51.384;0.040;2022-08-01T03:10:07;7.82;;;3.17;;
27706;SDS011;36332;51.384;0.040;2022-08-01T03:12:38;7.97;;;3.10;;
27706;SDS011;36332;51.384;0.040;2022-08-01T03:15:08;5.97;;;3.08;;
27706;SDS011;36332;51.384;0.040;2022-08-01T03:17:37;3.60;;;3.30;;
27706;SDS011;36332;51.384;0.040;2022-08-01T03:20:10;4.53;;;3.08;;
27706;SDS011;36332;51.384;0.040;2022-08-01T03:22:40;6.72;;;3.08;;
27706;SDS011;36332;51.384;0.040;2022-08-01T03:25:11;5.88;;;4.15;;
27706;SDS011;36332;51.384;0.040;2022-08-01T03:27:43;5.57;;;3.15;;
27706;SDS011;36332;51.384;0.040;2022-08-01T03:30:18;4.68;;;3.33;;
27706;SDS011;36332;51.384;0.040;2022-08-01T03:32:46;6.03;;;3.38;;
27706;SDS011;36332;51.384;0.040;2022-08-01T03:35:15;7.20;;;3.28;;
27706;SDS011;36332;51.384;0.040;2022-08-01T03:38:04;7.00;;;3.35;;
27706;SDS011;36332;51.384;0.040;2022-08-01T03:43:30;6.65;;;3.78;;
27706;SDS011;36332;51.384;0.040;2022-08-01T03:46:17;5.30;;;3.15;;
27706;SDS011;36332;51.384;0.040;2022-08-01T03:48:52;5.75;;;3.53;;
27706;SDS011;36332;51.384;0.040;2022-08-01T03:51:23;6.57;;;3.88;;
27706;SDS011;36332;51.384;0.040;2022-08-01T03:53:52;10.85;;;3.90;;
27706;SDS011;36332;51.384;0.040;2022-08-01T03:56:24;5.88;;;4.00;;
27706;SDS011;36332;51.384;0.040;2022-08-01T03:59:12;6.07;;;4.35;;
27706;SDS011;36332;51.384;0.040;2022-08-01T04:01:44;7.50;;;4.57;;
27706;SDS011;36332;51.384;0.040;2022-08-01T04:04:20;4.78;;;3.97;;
27706;SDS011;36332;51.384;0.040;2022-08-01T04:06:49;7.40;;;4.03;;
27706;SDS011;36332;51.384;0.040;2022-08-01T04:09:21;9.38;;;4.68;;
27706;SDS011;36332;51.384;0.040;2022-08-01T04:11:49;8.13;;;4.15;;
27706;SDS011;36332;51.384;0.040;2022-08-01T04:14:17;6.45;;;4.30;;
27706;SDS011;36332;51.384;0.040;2022-08-01T04:16:46;6.30;;;4.20;;
27706;SDS011;36332;51.384;0.040;2022-08-01T04:19:16;10.25;;;4.13;;
27706;SDS011;36332;51.384;0.040;2022-08-01T04:21:46;10.88;;;5.28;;
27706;SDS011;36332;51.384;0.040;2022-08-01T04:24:17;5.85;;;4.60;;
27706;SDS011;36332;51.384;0.040;2022-08-01T04:26:46;8.00;;;4.20;;
27706;SDS011;36332;51.384;0.040;2022-08-01T04:29:18;9.05;;;4.40;;
27706;SDS011;36332;51.384;0.040;2022-08-01T04:31:48;9.10;;;4.30;;
27706;SDS011;36332;51.384;0.040;2022-08-01T04:34:20;10.00;;;4.50;;
27706;SDS011;36332;51.384;0.040;2022-08-01T04:36:51;7.78;;;4.40;;
27706;SDS011;36332;51.384;0.040;2022-08-01T04:39:23;9.32;;;4.50;;
27706;SDS011;36332;51.384;0.040;2022-08-01T04:42:17;8.57;;;4.63;;
27706;SDS011;36332;51.384;0.040;2022-08-01T04:44:59;12.85;;;5.07;;
27706;SDS011;36332;51.384;0.040;2022-08-01T04:47:27;6.18;;;4.60;;
27706;SDS011;36332;51.384;0.040;2022-08-01T04:49:58;9.85;;;5.03;;
27706;SDS011;36332;51.384;0.040;2022-08-01T04:52:35;6.85;;;4.60;;
27706;SDS011;36332;51.384;0.040;2022-08-01T04:55:04;10.05;;;5.28;;
27706;SDS011;36332;51.384;0.040;2022-08-01T04:57:36;9.98;;;5.18;;
27706;SDS011;36332;51.384;0.040;2022-08-01T05:00:08;10.70;;;4.95;;
27706;SDS011;36332;51.384;0.040;2022-08-01T05:02:39;6.75;;;4.65;;
27706;SDS011;36332;51.384;0.040;2022-08-01T05:05:07;16.95;;;5.30;;
27706;SDS011;36332;51.384;0.040;2022-08-01T05:07:39;8.88;;;4.75;;
27706;SDS011;36332;51.384;0.040;2022-08-01T05:10:12;8.93;;;5.78;;
27706;SDS011;36332;51.384;0.040;2022-08-01T05:12:43;9.50;;;5.22;;
27706;SDS011;36332;51.384;0.040;2022-08-01T05:15:13;13.15;;;6.53;;
27706;SDS011;36332;51.384;0.040;2022-08-01T05:17:43;9.80;;;5.60;;
27706;SDS011;36332;51.384;0.040;2022-08-01T05:20:11;11.65;;;5.85;;
27706;SDS011;36332;51.384;0.040;2022-08-01T05:22:41;9.85;;;5.32;;
27706;SDS011;36332;51.384;0.040;2022-08-01T05:25:10;7.93;;;5.50;;
27706;SDS011;36332;51.384;0.040;2022-08-01T05:27:47;6.95;;;4.65;;
27706;SDS011;36332;51.384;0.040;2022-08-01T05:30:18;8.93;;;5.78;;
27706;SDS011;36332;51.384;0.040;2022-08-01T05:32:47;9.38;;;5.40;;
27706;SDS011;36332;51.384;0.040;2022-08-01T05:35:14;7.40;;;5.43;;
27706;SDS011;36332;51.384;0.040;2022-08-01T05:37:43;10.95;;;5.82;;
27706;SDS011;36332;51.384;0.040;2022-08-01T05:40:12;7.13;;;5.07;;
27706;SDS011;36332;51.384;0.040;2022-08-01T05:42:40;11.07;;;4.95;;
27706;SDS011;36332;51.384;0.040;2022-08-01T05:45:09;6.45;;;4.85;;
27706;SDS011;36332;51.384;0.040;2022-08-01T05:47:38;8.82;;;5.28;;
27706;SDS011;36332;51.384;0.040;2022-08-01T05:50:09;9.35;;;4.38;;
27706;SDS011;36332;51.384;0.040;2022-08-01T05:52:37;8.77;;;5.03;;
27706;SDS011;36332;51.384;0.040;2022-08-01T05:55:06;8.65;;;4.50;;
27706;SDS011;36332;51.384;0.040;2022-08-01T05:57:36;6.93;;;4.70;;
27706;SDS011;36332;51.384;0.040;2022-08-01T06:00:06;9.75;;;4.68;;
27706;SDS011;36332;51.384;0.040;2022-08-01T06:02:39;6.72;;;4.50;;
27706;SDS011;36332;51.384;0.040;2022-08-01T06:05:09;10.15;;;4.82;;
27706;SDS011;36332;51.384;0.040;2022-08-01T06:07:40;7.15;;;5.38;;
27706;SDS011;36332;51.384;0.040;2022-08-01T06:10:10;7.18;;;4.97;;
27706;SDS011;36332;51.384;0.040;2022-08-01T06:12:39;8.98;;;4.85;;
27706;SDS011;36332;51.384;0.040;2022-08-01T06:15:07;8.95;;;5.15;;
27706;SDS011;36332;51.384;0.040;2022-08-01T06:17:36;8.27;;;5.18;;
27706;SDS011;36332;51.384;0.040;2022-08-01T06:20:06;6.03;;;5.15;;
27706;SDS011;36332;51.384;0.040;2022-08-01T06:22:35;8.10;;;5.13;;
27706;SDS011;36332;51.384;0.040;2022-08-01T06:25:04;6.28;;;4.40;;
27706;SDS011;36332;51.384;0.040;2022-08-01T06:27:33;6.00;;;4.53;;
27706;SDS011;36332;51.384;0.040;2022-08-01T06:30:03;8.95;;;5.13;;
27706;SDS011;36332;51.384;0.040;2022-08-01T06:32:31;11.07;;;4.53;;
27706;SDS011;36332;51.384;0.040;2022-08-01T06:35:00;7.75;;;4.80;;
27706;SDS011;36332;51.384;0.040;2022-08-01T06:37:32;8.68;;;5.07;;
27706;SDS011;36332;51.384;0.040;2022-08-01T06:40:02;5.78;;;4.47;;
27706;SDS011;36332;51.384;0.040;2022-08-01T06:42:31;4.97;;;4.25;;
27706;SDS011;36332;51.384;0.040;2022-08-01T06:45:08;9.25;;;4.70;;
27706;SDS011;36332;51.384;0.040;2022-08-01T06:47:38;6.47;;;4.50;;
27706;SDS011;36332;51.384;0.040;2022-08-01T06:50:08;8.05;;;4.35;;
27706;SDS011;36332;51.384;0.040;2022-08-01T06:52:38;8.70;;;4.18;;
27706;SDS011;36332;51.384;0.040;2022-08-01T06:55:08;11.13;;;4.47;;
27706;SDS011;36332;51.384;0.040;2022-08-01T06:57:51;7.53;;;4.57;;
27706;SDS011;36332;51.384;0.040;2022-08-01T07:00:20;9.73;;;4.40;;
27706;SDS011;36332;51.384;0.040;2022-08-01T07:02:52;4.63;;;4.15;;
27706;SDS011;36332;51.384;0.040;2022-08-01T07:05:22;11.73;;;4.22;;
27706;SDS011;36332;51.384;0.040;2022-08-01T07:07:50;5.93;;;4.13;;
27706;SDS011;36332;51.384;0.040;2022-08-01T07:10:18;5.20;;;4.28;;
27706;SDS011;36332;51.384;0.040;2022-08-01T07:12:47;7.38;;;3.90;;
27706;SDS011;36332;51.384;0.040;2022-08-01T07:15:15;8.05;;;4.88;;
27706;SDS011;36332;51.384;0.040;2022-08-01T07:17:44;8.15;;;4.22;;
27706;SDS011;36332;51.384;0.040;2022-08-01T07:20:12;7.50;;;4.18;;
27706;SDS011;36332;51.384;0.040;2022-08-01T07:22:42;6.20;;;3.90;;
27706;SDS011;36332;51.384;0.040;2022-08-01T07:25:15;5.97;;;4.30;;
27706;SDS011;36332;51.384;0.040;2022-08-01T07:27:43;5.53;;;4.43;;
27706;SDS011;36332;51.384;0.040;2022-08-01T07:30:12;6.18;;;3.90;;
27706;SDS011;36332;51.384;0.040;2022-08-01T07:32:41;7.70;;;4.57;;
27706;SDS011;36332;51.384;0.040;2022-08-01T07:35:09;6.88;;;4.53;;
27706;SDS011;36332;51.384;0.040;2022-08-01T07:37:38;6.30;;;3.95;;
27706;SDS011;36332;51.384;0.040;2022-08-01T07:40:16;5.28;;;4.28;;
27706;SDS011;36332;51.384;0.040;2022-08-01T07:42:46;10.43;;;4.43;;
27706;SDS011;36332;51.384;0.040;2022-08-01T07:45:15;5.25;;;4.65;;
27706;SDS011;36332;51.384;0.040;2022-08-01T07:47:45;7.05;;;4.53;;
27706;SDS011;36332;51.384;0.040;2022-08-01T07:50:13;6.13;;;4.38;;
27706;SDS011;36332;51.384;0.040;2022-08-01T07:52:41;5.20;;;3.65;;
27706;SDS011;36332;51.384;0.040;2022-08-01T07:55:11;4.82;;;4.03;;
27706;SDS011;36332;51.384;0.040;2022-08-01T07:57:42;17.30;;;4.45;;
27706;SDS011;36332;51.384;0.040;2022-08-01T08:00:11;8.25;;;3.45;;
27706;SDS011;36332;51.384;0.040;2022-08-01T08:02:42;16.80;;;3.92;;
27706;SDS011;36332;51.384;0.040;2022-08-01T08:05:13;7.72;;;3.80;;
27706;SDS011;36332;51.384;0.040;2022-08-01T08:08:05;8.73;;;3.22;;
27706;SDS011;36332;51.384;0.040;2022-08-01T08:10:36;5.50;;;3.50;;
27706;SDS011;36332;51.384;0.040;2022-08-01T08:13:07;10.82;;;3.33;;
27706;SDS011;36332;51.384;0.040;2022-08-01T08:15:35;5.28;;;2.63;;
27706;SDS011;36332;51.384;0.040;2022-08-01T08:18:05;5.75;;;3.30;;
27706;SDS011;36332;51.384;0.040;2022-08-01T08:20:34;25.35;;;4.50;;
27706;SDS011;36332;51.384;0.040;2022-08-01T08:23:02;5.07;;;2.92;;
27706;SDS011;36332;51.384;0.040;2022-08-01T08:26:12;4.13;;;2.80;;
27706;SDS011;36332;51.384;0.040;2022-08-01T08:28:41;11.57;;;3.28;;
27706;SDS011;36332;51.384;0.040;2022-08-01T08:31:10;5.00;;;2.45;;
27706;SDS011;36332;51.384;0.040;2022-08-01T08:33:58;7.40;;;3.15;;
27706;SDS011;36332;51.384;0.040;2022-08-01T08:36:29;5.32;;;3.00;;
27706;SDS011;36332;51.384;0.040;2022-08-01T08:39:00;5.85;;;2.90;;
27706;SDS011;36332;51.384;0.040;2022-08-01T08:41:29;10.85;;;3.30;;
27706;SDS011;36332;51.384;0.040;2022-08-01T08:44:05;5.10;;;2.15;;
27706;SDS011;36332;51.384;0.040;2022-08-01T08:46:46;9.85;;;3.50;;
27706;SDS011;36332;51.384;0.040;2022-08-01T08:49:20;4.82;;;2.97;;
27706;SDS011;36332;51.384;0.040;2022-08-01T08:51:52;5.28;;;3.05;;
27706;SDS011;36332;51.384;0.040;2022-08-01T08:54:25;4.85;;;2.70;;
27706;SDS011;36332;51.384;0.040;2022-08-01T08:56:59;5.30;;;2.97;;
27706;SDS011;36332;51.384;0.040;2022-08-01T08:59:28;3.13;;;2.53;;
27706;SDS011;36332;51.384;0.040;2022-08-01T09:01:57;6.82;;;2.97;;
27706;SDS011;36332;51.384;0.040;2022-08-01T09:04:27;4.78;;;2.13;;
27706;SDS011;36332;51.384;0.040;2022-08-01T09:09:55;5.78;;;2.35;;
27706;SDS011;36332;51.384;0.040;2022-08-01T09:12:24;3.85;;;2.20;;
27706;SDS011;36332;51.384;0.040;2022-08-01T09:14:55;2.78;;;2.15;;
27706;SDS011;36332;51.384;0.040;2022-08-01T09:17:23;4.53;;;1.88;;
27706;SDS011;36332;51.384;0.040;2022-08-01T09:19:53;6.07;;;2.58;;
27706;SDS011;36332;51.384;0.040;2022-08-01T09:22:24;4.00;;;2.67;;
27706;SDS011;36332;51.384;0.040;2022-08-01T09:24:59;2.40;;;2.10;;
27706;SDS011;36332;51.384;0.040;2022-08-01T09:27:38;4.93;;;2.63;;
27706;SDS011;36332;51.384;0.040;2022-08-01T09:30:13;10.65;;;2.78;;
27706;SDS011;36332;51.384;0.040;2022-08-01T09:32:59;2.85;;;1.92;;
27706;SDS011;36332;51.384;0.040;2022-08-01T09:35:45;4.93;;;2.80;;
27706;SDS011;36332;51.384;0.040;2022-08-01T09:38:23;7.28;;;2.30;;
27706;SDS011;36332;51.384;0.040;2022-08-01T09:41:00;4.45;;;2.17;;
27706;SDS011;36332;51.384;0.040;2022-08-01T09:43:29;5.47;;;2.00;;
27706;SDS011;36332;51.384;0.040;2022-08-01T09:45:59;5.50;;;2.28;;
27706;SDS011;36332;51.384;0.040;2022-08-01T09:48:38;4.95;;;1.65;;
27706;SDS011;36332;51.384;0.040;2022-08-01T09:51:36;5.18;;;2.30;;
27706;SDS011;36332;51.384;0.040;2022-08-01T09:54:31;2.67;;;1.98;;
27706;SDS011;36332;51.384;0.040;2022-08-01T09:57:10;4.18;;;1.95;;
27706;SDS011;36332;51.384;0.040;2022-08-01T09:59:42;3.28;;;1.95;;
27706;SDS011;36332;51.384;0.040;2022-08-01T10:04:55;4.20;;;1.95;;
27706;SDS011;36332;51.384;0.040;2022-08-01T10:07:34;6.38;;;2.25;;
27706;SDS011;36332;51.384;0.040;2022-08-01T10:10:11;4.72;;;2.22;;
27706;SDS011;36332;51.384;0.040;2022-08-01T10:12:41;7.88;;;2.50;;
27706;SDS011;36332;51.384;0.040;2022-08-01T10:15:16;5.15;;;1.92;;
27706;SDS011;36332;51.384;0.040;2022-08-01T10:17:54;3.83;;;2.20;;
27706;SDS011;36332;51.384;0.040;2022-08-01T10:23:02;7.32;;;1.92;;
27706;SDS011;36332;51.384;0.040;2022-08-01T10:25:37;4.93;;;2.20;;
27706;SDS011;36332;51.384;0.040;2022-08-01T10:28:13;3.63;;;2.30;;
27706;SDS011;36332;51.384;0.040;2022-08-01T10:30:49;2.97;;;2.00;;
27706;SDS011;36332;51.384;0.040;2022-08-01T10:33:21;4.10;;;3.03;;
27706;SDS011;36332;51.384;0.040;2022-08-01T10:36:10;3.45;;;2.50;;
27706;SDS011;36332;51.384;0.040;2022-08-01T10:38:38;7.68;;;3.10;;
27706;SDS011;36332;51.384;0.040;2022-08-01T10:41:06;6.07;;;2.47;;
27706;SDS011;36332;51.384;0.040;2022-08-01T10:43:41;8.10;;;2.03;;
27706;SDS011;36332;51.384;0.040;2022-08-01T10:46:13;5.10;;;2.08;;
27706;SDS011;36332;51.384;0.040;2022-08-01T10:51:43;6.07;;;1.88;;
27706;SDS011;36332;51.384;0.040;2022-08-01T10:54:25;2.25;;;1.67;;
27706;SDS011;36332;51.384;0.040;2022-08-01T10:56:54;4.85;;;1.67;;
27706;SDS011;36332;51.384;0.040;2022-08-01T10:59:28;3.08;;;2.42;;
27706;SDS011;36332;51.384;0.040;2022-08-01T11:02:27;3.50;;;1.95;;
27706;SDS011;36332;51.384;0.040;2022-08-01T11:05:26;2.67;;;1.75;;
27706;SDS011;36332;51.384;0.040;2022-08-01T11:08:42;3.67;;;2.22;;
27706;SDS011;36332;51.384;0.040;2022-08-01T11:10:50;6.38;;;1.80;;
27706;SDS011;36332;51.384;0.040;2022-08-01T11:16:34;7.20;;;1.60;;
27706;SDS011;36332;51.384;0.040;2022-08-01T11:19:04;2.60;;;1.67;;
27706;SDS011;36332;51.384;0.040;2022-08-01T11:32:57;3.63;;;1.50;;
27706;SDS011;36332;51.384;0.040;2022-08-01T11:35:38;2.80;;;1.50;;
27706;SDS011;36332;51.384;0.040;2022-08-01T11:41:11;5.18;;;1.88;;
27706;SDS011;36332;51.384;0.040;2022-08-01T11:44:06;4.35;;;2.22;;
27706;SDS011;36332;51.384;0.040;2022-08-01T11:52:14;4.22;;;2.10;;
27706;SDS011;36332;51.384;0.040;2022-08-01T11:57:21;3.63;;;1.90;;
27706;SDS011;36332;51.384;0.040;2022-08-01T12:00:10;2.25;;;1.50;;
27706;SDS011;36332;51.384;0.040;2022-08-01T12:02:44;3.13;;;2.83;;
27706;SDS011;36332;51.384;0.040;2022-08-01T12:05:15;7.18;;;2.28;;
27706;SDS011;36332;51.384;0.040;2022-08-01T12:07:51;3.08;;;1.60;;
27706;SDS011;36332;51.384;0.040;2022-08-01T12:10:31;2.58;;;0.98;;
27706;SDS011;36332;51.384;0.040;2022-08-01T12:13:16;2.47;;;1.17;;
27706;SDS011;36332;51.384;0.040;2022-08-01T12:15:50;3.15;;;1.90;;
27706;SDS011;36332;51.384;0.040;2022-08-01T12:18:23;4.00;;;1.92;;
27706;SDS011;36332;51.384;0.040;2022-08-01T12:20:50;4.65;;;1.70;;
27706;SDS011;36332;51.384;0.040;2022-08-01T12:23:23;6.07;;;1.50;;
27706;SDS011;36332;51.384;0.040;2022-08-01T12:25:52;2.78;;;1.33;;
27706;SDS011;36332;51.384;0.040;2022-08-01T12:28:22;5.60;;;1.35;;
27706;SDS011;36332;51.384;0.040;2022-08-01T12:30:51;2.58;;;1.40;;
27706;SDS011;36332;51.384;0.040;2022-08-01T12:33:19;7.18;;;1.58;;
27706;SDS011;36332;51.384;0.040;2022-08-01T12:35:48;7.35;;;1.63;;
27706;SDS011;36332;51.384;0.040;2022-08-01T12:38:19;4.13;;;1.33;;
27706;SDS011;36332;51.384;0.040;2022-08-01T12:40:51;6.20;;;1.98;;
27706;SDS011;36332;51.384;0.040;2022-08-01T12:43:22;3.00;;;1.70;;
27706;SDS011;36332;51.384;0.040;2022-08-01T12:45:57;2.33;;;1.65;;
27706;SDS011;36332;51.384;0.040;2022-08-01T12:48:28;3.65;;;1.77;;
27706;SDS011;36332;51.384;0.040;2022-08-01T12:51:02;3.85;;;1.52;;
27706;SDS011;36332;51.384;0.040;2022-08-01T12:53:33;5.13;;;2.00;;
27706;SDS011;36332;51.384;0.040;2022-08-01T12:56:07;5.20;;;1.58;;
27706;SDS011;36332;51.384;0.040;2022-08-01T12:58:38;4.53;;;1.77;;
27706;SDS011;36332;51.384;0.040;2022-08-01T13:01:07;2.55;;;1.33;;
27706;SDS011;36332;51.384;0.040;2022-08-01T13:03:39;3.80;;;1.90;;
27706;SDS011;36332;51.384;0.040;2022-08-01T13:06:14;3.28;;;1.38;;
27706;SDS011;36332;51.384;0.040;2022-08-01T13:08:45;6.10;;;1.75;;
27706;SDS011;36332;51.384;0.040;2022-08-01T13:11:14;3.70;;;1.50;;
27706;SDS011;36332;51.384;0.040;2022-08-01T13:13:50;4.55;;;1.42;;
27706;SDS011;36332;51.384;0.040;2022-08-01T13:16:23;2.00;;;1.05;;
27706;SDS011;36332;51.384;0.040;2022-08-01T13:19:12;7.05;;;2.20;;
27706;SDS011;36332;51.384;0.040;2022-08-01T13:21:52;2.10;;;1.23;;
27706;SDS011;36332;51.384;0.040;2022-08-01T13:24:28;5.40;;;1.30;;
27706;SDS011;36332;51.384;0.040;2022-08-01T13:26:57;6.50;;;2.10;;
27706;SDS011;36332;51.384;0.040;2022-08-01T13:29:29;3.42;;;1.67;;
27706;SDS011;36332;51.384;0.040;2022-08-01T13:35:05;2.65;;;1.50;;
27706;SDS011;36332;51.384;0.040;2022-08-01T13:37:36;4.03;;;1.40;;
27706;SDS011;36332;51.384;0.040;2022-08-01T13:40:06;3.13;;;1.60;;
27706;SDS011;36332;51.384;0.040;2022-08-01T13:42:36;2.50;;;1.35;;
27706;SDS011;36332;51.384;0.040;2022-08-01T13:45:06;3.08;;;1.75;;
27706;SDS011;36332;51.384;0.040;2022-08-01T13:47:44;6.32;;;1.38;;
27706;SDS011;36332;51.384;0.040;2022-08-01T13:50:32;5.43;;;1.52;;
27706;SDS011;36332;51.384;0.040;2022-08-01T13:53:00;3.90;;;1.35;;
27706;SDS011;36332;51.384;0.040;2022-08-01T13:55:28;2.35;;;0.98;;
27706;SDS011;36332;51.384;0.040;2022-08-01T13:58:01;3.33;;;1.60;;
27706;SDS011;36332;51.384;0.040;2022-08-01T14:00:30;1.85;;;1.25;;
27706;SDS011;36332;51.384;0.040;2022-08-01T14:02:58;12.75;;;3.15;;
27706;SDS011;36332;51.384;0.040;2022-08-01T14:05:26;3.05;;;1.58;;
27706;SDS011;36332;51.384;0.040;2022-08-01T14:07:56;3.80;;;1.35;;
27706;SDS011;36332;51.384;0.040;2022-08-01T14:10:25;5.05;;;1.77;;
27706;SDS011;36332;51.384;0.040;2022-08-01T14:12:54;2.42;;;1.33;;
27706;SDS011;36332;51.384;0.040;2022-08-01T14:15:24;5.28;;;1.33;;
27706;SDS011;36332;51.384;0.040;2022-08-01T14:18:08;3.58;;;1.67;;
27706;SDS011;36332;51.384;0.040;2022-08-01T14:20:37;4.03;;;1.63;;
27706;SDS011;36332;51.384;0.040;2022-08-01T14:23:07;4.75;;;1.67;;
27706;SDS011;36332;51.384;0.040;2022-08-01T14:25:37;3.88;;;1.45;;
27706;SDS011;36332;51.384;0.040;2022-08-01T14:28:33;1.63;;;1.10;;
27706;SDS011;36332;51.384;0.040;2022-08-01T14:31:01;2.08;;;1.55;;
27706;SDS011;36332;51.384;0.040;2022-08-01T14:33:29;3.75;;;1.30;;
27706;SDS011;36332;51.384;0.040;2022-08-01T14:36:00;2.03;;;1.40;;
27706;SDS011;36332;51.384;0.040;2022-08-01T14:38:48;3.80;;;1.20;;
27706;SDS011;36332;51.384;0.040;2022-08-01T14:41:17;2.75;;;1.33;;
27706;SDS011;36332;51.384;0.040;2022-08-01T14:43:45;3.90;;;1.50;;
27706;SDS011;36332;51.384;0.040;2022-08-01T14:46:13;2.00;;;1.40;;
27706;SDS011;36332;51.384;0.040;2022-08-01T14:48:40;3.88;;;1.80;;
27706;SDS011;36332;51.384;0.040;2022-08-01T14:51:09;4.60;;;1.33;;
27706;SDS011;36332;51.384;0.040;2022-08-01T14:53:37;2.40;;;1.88;;
27706;SDS011;36332;51.384;0.040;2022-08-01T14:56:12;3.45;;;1.50;;
27706;SDS011;36332;51.384;0.040;2022-08-01T14:58:41;2.55;;;1.90;;
27706;SDS011;36332;51.384;0.040;2022-08-01T15:01:10;3.80;;;1.23;;
27706;SDS011;36332;51.384;0.040;2022-08-01T15:03:42;4.05;;;1.50;;
27706;SDS011;36332;51.384;0.040;2022-08-01T15:06:15;4.78;;;1.70;;
27706;SDS011;36332;51.384;0.040;2022-08-01T15:08:44;3.85;;;1.45;;
27706;SDS011;36332;51.384;0.040;2022-08-01T15:11:12;2.78;;;1.77;;
27706;SDS011;36332;51.384;0.040;2022-08-01T15:13:39;2.13;;;1.75;;
27706;SDS011;36332;51.384;0.040;2022-08-01T15:16:09;5.55;;;1.70;;
27706;SDS011;36332;51.384;0.040;2022-08-01T15:18:38;5.82;;;1.70;;
27706;SDS011;36332;51.384;0.040;2022-08-01T15:21:06;3.63;;;1.55;;
27706;SDS011;36332;51.384;0.040;2022-08-01T15:23:46;4.30;;;1.25;;
27706;SDS011;36332;51.384;0.040;2022-08-01T15:26:15;5.07;;;1.48;;
27706;SDS011;36332;51.384;0.040;2022-08-01T15:28:44;7.75;;;1.98;;
27706;SDS011;36332;51.384;0.040;2022-08-01T15:31:12;3.80;;;2.47;;
27706;SDS011;36332;51.384;0.040;2022-08-01T15:33:40;6.68;;;3.10;;
27706;SDS011;36332;51.384;0.040;2022-08-01T15:36:08;5.20;;;2.20;;
27706;SDS011;36332;51.384;0.040;2022-08-01T15:38:38;3.47;;;1.20;;
27706;SDS011;36332;51.384;0.040;2022-08-01T15:41:09;4.32;;;2.03;;
27706;SDS011;36332;51.384;0.040;2022-08-01T15:43:36;2.58;;;2.30;;
27706;SDS011;36332;51.384;0.040;2022-08-01T15:46:10;3.80;;;2.47;;
27706;SDS011;36332;51.384;0.040;2022-08-01T15:48:39;3.47;;;1.83;;
27706;SDS011;36332;51.384;0.040;2022-08-01T15:51:07;2.78;;;1.65;;
27706;SDS011;36332;51.384;0.040;2022-08-01T15:53:35;4.28;;;2.63;;
27706;SDS011;36332;51.384;0.040;2022-08-01T15:56:03;4.15;;;2.63;;
27706;SDS011;36332;51.384;0.040;2022-08-01T15:58:31;3.38;;;1.90;;
27706;SDS011;36332;51.384;0.040;2022-08-01T16:01:00;4.97;;;3.03;;
27706;SDS011;36332;51.384;0.040;2022-08-01T16:03:28;3.67;;;1.92;;
27706;SDS011;36332;51.384;0.040;2022-08-01T16:05:57;4.47;;;1.40;;
27706;SDS011;36332;51.384;0.040;2022-08-01T16:08:28;2.28;;;2.00;;
27706;SDS011;36332;51.384;0.040;2022-08-01T16:10:56;8.55;;;2.65;;
27706;SDS011;36332;51.384;0.040;2022-08-01T16:13:24;3.20;;;2.22;;
27706;SDS011;36332;51.384;0.040;2022-08-01T16:15:53;3.70;;;2.15;;
27706;SDS011;36332;51.384;0.040;2022-08-01T16:18:21;4.28;;;2.10;;
27706;SDS011;36332;51.384;0.040;2022-08-01T16:20:50;5.13;;;2.60;;